sensor_id;sensor_type;location;lat;lon;timestamp;P1;durP1;ratioP1;P2;durP2;ratioP2
66935;SDS011;53847;51.984;5.896;2022-09-09T00:00:06;1.80;;;1.48;;
66935;SDS011;53847;51.984;5.896;2022-09-09T00:02:47;1.92;;;1.52;;
66935;SDS011;53847;51.984;5.896;2022-09-09T00:05:26;2.35;;;1.35;;
66935;SDS011;53847;51.984;5.896;2022-09-09T00:08:21;1.50;;;1.40;;
66935;SDS011;53847;51.984;5.896;2022-09-09T00:10:56;1.63;;;1.40;;
66935;SDS011;53847;51.984;5.896;2022-09-09T00:13:30;1.90;;;1.65;;
66935;SDS011;53847;51.984;5.896;2022-09-09T00:16:15;1.67;;;1.58;;
66935;SDS011;53847;51.984;5.896;2022-09-09T00:21:46;1.73;;;1.63;;
66935;SDS011;53847;51.984;5.896;2022-09-09T00:24:30;1.70;;;1.60;;
66935;SDS011;53847;51.984;5.896;2022-09-09T00:27:08;2.03;;;1.85;;
66935;SDS011;53847;51.984;5.896;2022-09-09T00:29:51;1.92;;;1.73;;
66935;SDS011;53847;51.984;5.896;2022-09-09T00:32:21;2.13;;;1.90;;
66935;SDS011;53847;51.984;5.896;2022-09-09T00:34:55;1.75;;;1.65;;
66935;SDS011;53847;51.984;5.896;2022-09-09T00:37:29;2.75;;;2.00;;
66935;SDS011;53847;51.984;5.896;2022-09-09T00:39:58;2.30;;;2.10;;
66935;SDS011;53847;51.984;5.896;2022-09-09T00:42:31;2.55;;;1.88;;
66935;SDS011;53847;51.984;5.896;2022-09-09T00:45:27;1.73;;;1.50;;
66935;SDS011;53847;51.984;5.896;2022-09-09T00:48:07;2.78;;;1.65;;
66935;SDS011;53847;51.984;5.896;2022-09-09T00:53:27;1.88;;;1.50;;
66935;SDS011;53847;51.984;5.896;2022-09-09T00:56:20;2.35;;;1.80;;
66935;SDS011;53847;51.984;5.896;2022-09-09T00:58:55;2.65;;;1.40;;
66935;SDS011;53847;51.984;5.896;2022-09-09T01:01:29;2.30;;;1.80;;
66935;SDS011;53847;51.984;5.896;2022-09-09T01:03:56;2.22;;;2.00;;
66935;SDS011;53847;51.984;5.896;2022-09-09T01:06:24;2.08;;;1.63;;
66935;SDS011;53847;51.984;5.896;2022-09-09T01:17:04;1.88;;;1.40;;
66935;SDS011;53847;51.984;5.896;2022-09-09T01:23:01;1.30;;;1.20;;
66935;SDS011;53847;51.984;5.896;2022-09-09T01:28:39;1.50;;;1.35;;
66935;SDS011;53847;51.984;5.896;2022-09-09T01:31:14;1.67;;;1.40;;
66935;SDS011;53847;51.984;5.896;2022-09-09T01:33:45;1.88;;;1.45;;
66935;SDS011;53847;51.984;5.896;2022-09-09T01:36:14;1.38;;;1.25;;
66935;SDS011;53847;51.984;5.896;2022-09-09T01:38:49;1.77;;;1.42;;
66935;SDS011;53847;51.984;5.896;2022-09-09T01:41:16;1.73;;;1.40;;
66935;SDS011;53847;51.984;5.896;2022-09-09T01:43:56;1.52;;;1.20;;
66935;SDS011;53847;51.984;5.896;2022-09-09T01:46:23;2.60;;;1.85;;
66935;SDS011;53847;51.984;5.896;2022-09-09T01:48:51;2.38;;;1.50;;
66935;SDS011;53847;51.984;5.896;2022-09-09T01:51:18;1.90;;;1.70;;
66935;SDS011;53847;51.984;5.896;2022-09-09T01:53:44;1.60;;;1.50;;
66935;SDS011;53847;51.984;5.896;2022-09-09T01:56:21;1.88;;;1.70;;
66935;SDS011;53847;51.984;5.896;2022-09-09T01:59:01;1.73;;;1.63;;
66935;SDS011;53847;51.984;5.896;2022-09-09T02:03:57;1.50;;;1.40;;
66935;SDS011;53847;51.984;5.896;2022-09-09T02:08:59;1.80;;;1.60;;
66935;SDS011;53847;51.984;5.896;2022-09-09T02:11:27;1.67;;;1.58;;
66935;SDS011;53847;51.984;5.896;2022-09-09T02:14:18;1.40;;;1.30;;
66935;SDS011;53847;51.984;5.896;2022-09-09T02:16:50;2.53;;;1.70;;
66935;SDS011;53847;51.984;5.896;2022-09-09T02:19:22;1.98;;;1.70;;
66935;SDS011;53847;51.984;5.896;2022-09-09T02:22:00;1.80;;;1.70;;
66935;SDS011;53847;51.984;5.896;2022-09-09T02:24:29;1.88;;;1.52;;
66935;SDS011;53847;51.984;5.896;2022-09-09T02:27:09;1.52;;;1.42;;
66935;SDS011;53847;51.984;5.896;2022-09-09T02:29:41;2.75;;;1.73;;
66935;SDS011;53847;51.984;5.896;2022-09-09T02:32:11;1.60;;;1.50;;
66935;SDS011;53847;51.984;5.896;2022-09-09T02:34:51;1.52;;;1.42;;
66935;SDS011;53847;51.984;5.896;2022-09-09T02:37:22;1.87;;;1.57;;
66935;SDS011;53847;51.984;5.896;2022-09-09T02:39:53;1.63;;;1.47;;
66935;SDS011;53847;51.984;5.896;2022-09-09T02:42:21;1.27;;;1.17;;
66935;SDS011;53847;51.984;5.896;2022-09-09T02:44:48;1.92;;;1.70;;
66935;SDS011;53847;51.984;5.896;2022-09-09T02:47:33;2.00;;;1.58;;
66935;SDS011;53847;51.984;5.896;2022-09-09T02:52:42;1.88;;;1.30;;
66935;SDS011;53847;51.984;5.896;2022-09-09T02:55:16;1.50;;;1.40;;
66935;SDS011;53847;51.984;5.896;2022-09-09T02:57:56;1.77;;;1.40;;
66935;SDS011;53847;51.984;5.896;2022-09-09T03:00:27;1.70;;;1.60;;
66935;SDS011;53847;51.984;5.896;2022-09-09T03:02:57;2.03;;;1.58;;
66935;SDS011;53847;51.984;5.896;2022-09-09T03:05:25;1.55;;;1.45;;
66935;SDS011;53847;51.984;5.896;2022-09-09T03:07:51;1.67;;;1.50;;
66935;SDS011;53847;51.984;5.896;2022-09-09T03:10:18;1.75;;;1.55;;
66935;SDS011;53847;51.984;5.896;2022-09-09T03:12:44;1.77;;;1.50;;
66935;SDS011;53847;51.984;5.896;2022-09-09T03:15:11;1.70;;;1.42;;
66935;SDS011;53847;51.984;5.896;2022-09-09T03:17:38;1.50;;;1.40;;
66935;SDS011;53847;51.984;5.896;2022-09-09T03:20:07;3.10;;;1.40;;
66935;SDS011;53847;51.984;5.896;2022-09-09T03:22:36;2.28;;;1.80;;
66935;SDS011;53847;51.984;5.896;2022-09-09T03:25:03;3.85;;;1.80;;
66935;SDS011;53847;51.984;5.896;2022-09-09T03:27:30;2.08;;;1.70;;
66935;SDS011;53847;51.984;5.896;2022-09-09T03:29:57;1.60;;;1.50;;
66935;SDS011;53847;51.984;5.896;2022-09-09T03:32:24;1.33;;;1.23;;
66935;SDS011;53847;51.984;5.896;2022-09-09T03:34:51;2.05;;;1.45;;
66935;SDS011;53847;51.984;5.896;2022-09-09T03:37:18;2.17;;;1.80;;
66935;SDS011;53847;51.984;5.896;2022-09-09T03:39:45;2.45;;;1.80;;
66935;SDS011;53847;51.984;5.896;2022-09-09T03:42:12;3.22;;;1.50;;
66935;SDS011;53847;51.984;5.896;2022-09-09T03:44:40;1.80;;;1.42;;
66935;SDS011;53847;51.984;5.896;2022-09-09T03:47:06;1.60;;;1.50;;
66935;SDS011;53847;51.984;5.896;2022-09-09T03:49:32;3.40;;;1.80;;
66935;SDS011;53847;51.984;5.896;2022-09-09T03:51:59;1.67;;;1.58;;
66935;SDS011;53847;51.984;5.896;2022-09-09T03:54:25;1.65;;;1.55;;
66935;SDS011;53847;51.984;5.896;2022-09-09T03:56:52;3.42;;;1.85;;
66935;SDS011;53847;51.984;5.896;2022-09-09T03:59:18;1.55;;;1.30;;
66935;SDS011;53847;51.984;5.896;2022-09-09T04:01:44;3.00;;;1.80;;
66935;SDS011;53847;51.984;5.896;2022-09-09T04:04:11;1.98;;;1.50;;
66935;SDS011;53847;51.984;5.896;2022-09-09T04:06:37;1.52;;;1.42;;
66935;SDS011;53847;51.984;5.896;2022-09-09T04:09:03;2.42;;;1.48;;
66935;SDS011;53847;51.984;5.896;2022-09-09T04:11:30;2.00;;;1.80;;
66935;SDS011;53847;51.984;5.896;2022-09-09T04:13:58;2.63;;;1.70;;
66935;SDS011;53847;51.984;5.896;2022-09-09T04:16:24;2.03;;;1.50;;
66935;SDS011;53847;51.984;5.896;2022-09-09T04:18:50;2.58;;;1.30;;
66935;SDS011;53847;51.984;5.896;2022-09-09T04:21:17;3.13;;;1.52;;
66935;SDS011;53847;51.984;5.896;2022-09-09T04:23:43;2.60;;;1.67;;
66935;SDS011;53847;51.984;5.896;2022-09-09T04:26:09;1.52;;;1.30;;
66935;SDS011;53847;51.984;5.896;2022-09-09T04:28:37;2.38;;;1.80;;
66935;SDS011;53847;51.984;5.896;2022-09-09T04:31:10;2.85;;;2.10;;
66935;SDS011;53847;51.984;5.896;2022-09-09T04:33:43;2.00;;;1.70;;
66935;SDS011;53847;51.984;5.896;2022-09-09T04:36:09;1.88;;;1.60;;
66935;SDS011;53847;51.984;5.896;2022-09-09T04:38:36;2.80;;;2.03;;
66935;SDS011;53847;51.984;5.896;2022-09-09T04:41:03;2.20;;;1.88;;
66935;SDS011;53847;51.984;5.896;2022-09-09T04:43:31;2.03;;;1.60;;
66935;SDS011;53847;51.984;5.896;2022-09-09T04:45:58;2.17;;;1.75;;
66935;SDS011;53847;51.984;5.896;2022-09-09T04:48:25;3.50;;;2.00;;
66935;SDS011;53847;51.984;5.896;2022-09-09T04:50:55;2.67;;;2.33;;
66935;SDS011;53847;51.984;5.896;2022-09-09T04:53:22;2.33;;;1.65;;
66935;SDS011;53847;51.984;5.896;2022-09-09T04:55:49;2.83;;;2.13;;
66935;SDS011;53847;51.984;5.896;2022-09-09T04:58:15;3.58;;;1.80;;
66935;SDS011;53847;51.984;5.896;2022-09-09T05:00:41;3.65;;;2.03;;
66935;SDS011;53847;51.984;5.896;2022-09-09T05:03:07;2.30;;;1.90;;
66935;SDS011;53847;51.984;5.896;2022-09-09T05:05:34;2.83;;;2.30;;
66935;SDS011;53847;51.984;5.896;2022-09-09T05:08:04;4.72;;;2.28;;
66935;SDS011;53847;51.984;5.896;2022-09-09T05:10:33;2.08;;;1.60;;
66935;SDS011;53847;51.984;5.896;2022-09-09T05:12:59;2.72;;;1.80;;
66935;SDS011;53847;51.984;5.896;2022-09-09T05:15:28;2.17;;;1.92;;
66935;SDS011;53847;51.984;5.896;2022-09-09T05:17:58;2.83;;;2.20;;
66935;SDS011;53847;51.984;5.896;2022-09-09T05:20:26;3.15;;;2.30;;
66935;SDS011;53847;51.984;5.896;2022-09-09T05:22:53;3.75;;;2.40;;
66935;SDS011;53847;51.984;5.896;2022-09-09T05:25:21;4.15;;;2.22;;
66935;SDS011;53847;51.984;5.896;2022-09-09T05:27:48;3.55;;;2.58;;
66935;SDS011;53847;51.984;5.896;2022-09-09T05:30:14;4.03;;;2.35;;
66935;SDS011;53847;51.984;5.896;2022-09-09T05:32:41;5.65;;;2.50;;
66935;SDS011;53847;51.984;5.896;2022-09-09T05:35:07;2.58;;;1.83;;
66935;SDS011;53847;51.984;5.896;2022-09-09T05:37:34;3.72;;;1.85;;
66935;SDS011;53847;51.984;5.896;2022-09-09T05:40:00;3.13;;;1.80;;
66935;SDS011;53847;51.984;5.896;2022-09-09T05:42:30;3.42;;;1.92;;
66935;SDS011;53847;51.984;5.896;2022-09-09T05:44:58;2.80;;;2.08;;
66935;SDS011;53847;51.984;5.896;2022-09-09T05:47:24;4.97;;;1.80;;
66935;SDS011;53847;51.984;5.896;2022-09-09T05:49:50;4.85;;;2.38;;
66935;SDS011;53847;51.984;5.896;2022-09-09T05:52:17;4.72;;;2.15;;
66935;SDS011;53847;51.984;5.896;2022-09-09T05:54:43;5.43;;;2.25;;
66935;SDS011;53847;51.984;5.896;2022-09-09T05:57:09;3.45;;;1.95;;
66935;SDS011;53847;51.984;5.896;2022-09-09T05:59:35;3.53;;;2.20;;
66935;SDS011;53847;51.984;5.896;2022-09-09T06:02:02;5.07;;;2.30;;
66935;SDS011;53847;51.984;5.896;2022-09-09T06:04:35;2.78;;;1.95;;
66935;SDS011;53847;51.984;5.896;2022-09-09T06:07:02;5.15;;;2.35;;
66935;SDS011;53847;51.984;5.896;2022-09-09T06:09:28;6.15;;;2.08;;
66935;SDS011;53847;51.984;5.896;2022-09-09T06:11:55;4.57;;;2.38;;
66935;SDS011;53847;51.984;5.896;2022-09-09T06:14:22;4.80;;;2.20;;
66935;SDS011;53847;51.984;5.896;2022-09-09T06:16:51;2.80;;;1.90;;
66935;SDS011;53847;51.984;5.896;2022-09-09T06:19:21;4.20;;;2.05;;
66935;SDS011;53847;51.984;5.896;2022-09-09T06:21:47;3.60;;;1.80;;
66935;SDS011;53847;51.984;5.896;2022-09-09T06:24:14;3.92;;;2.10;;
66935;SDS011;53847;51.984;5.896;2022-09-09T06:26:40;3.58;;;1.98;;
66935;SDS011;53847;51.984;5.896;2022-09-09T06:29:06;4.88;;;2.00;;
66935;SDS011;53847;51.984;5.896;2022-09-09T06:31:34;3.40;;;1.88;;
66935;SDS011;53847;51.984;5.896;2022-09-09T06:34:08;3.72;;;2.20;;
66935;SDS011;53847;51.984;5.896;2022-09-09T06:36:38;4.47;;;2.03;;
66935;SDS011;53847;51.984;5.896;2022-09-09T06:39:05;3.58;;;1.73;;
66935;SDS011;53847;51.984;5.896;2022-09-09T06:41:32;4.45;;;2.20;;
66935;SDS011;53847;51.984;5.896;2022-09-09T06:44:00;2.47;;;1.70;;
66935;SDS011;53847;51.984;5.896;2022-09-09T06:46:39;6.18;;;1.95;;
66935;SDS011;53847;51.984;5.896;2022-09-09T06:49:07;3.63;;;1.58;;
66935;SDS011;53847;51.984;5.896;2022-09-09T06:51:35;5.18;;;2.00;;
66935;SDS011;53847;51.984;5.896;2022-09-09T06:54:03;4.18;;;1.92;;
66935;SDS011;53847;51.984;5.896;2022-09-09T06:56:37;2.60;;;1.77;;
66935;SDS011;53847;51.984;5.896;2022-09-09T06:59:08;4.10;;;1.70;;
66935;SDS011;53847;51.984;5.896;2022-09-09T07:01:37;3.88;;;2.15;;
66935;SDS011;53847;51.984;5.896;2022-09-09T07:06:37;4.45;;;1.90;;
66935;SDS011;53847;51.984;5.896;2022-09-09T07:09:07;4.28;;;2.15;;
66935;SDS011;53847;51.984;5.896;2022-09-09T07:11:43;5.70;;;1.92;;
66935;SDS011;53847;51.984;5.896;2022-09-09T07:14:12;7.13;;;2.00;;
66935;SDS011;53847;51.984;5.896;2022-09-09T07:16:39;4.45;;;1.70;;
66935;SDS011;53847;51.984;5.896;2022-09-09T07:19:06;2.75;;;1.50;;
66935;SDS011;53847;51.984;5.896;2022-09-09T07:21:33;4.93;;;1.77;;
66935;SDS011;53847;51.984;5.896;2022-09-09T07:23:59;3.40;;;1.80;;
66935;SDS011;53847;51.984;5.896;2022-09-09T07:26:28;4.38;;;2.00;;
66935;SDS011;53847;51.984;5.896;2022-09-09T07:28:57;4.50;;;1.80;;
66935;SDS011;53847;51.984;5.896;2022-09-09T07:31:27;6.03;;;2.10;;
66935;SDS011;53847;51.984;5.896;2022-09-09T07:33:55;5.03;;;1.92;;
66935;SDS011;53847;51.984;5.896;2022-09-09T07:36:23;2.88;;;1.50;;
66935;SDS011;53847;51.984;5.896;2022-09-09T07:38:58;3.95;;;1.67;;
66935;SDS011;53847;51.984;5.896;2022-09-09T07:41:31;6.55;;;1.90;;
66935;SDS011;53847;51.984;5.896;2022-09-09T07:44:07;4.45;;;1.90;;
66935;SDS011;53847;51.984;5.896;2022-09-09T07:46:42;4.45;;;2.08;;
66935;SDS011;53847;51.984;5.896;2022-09-09T07:49:10;5.63;;;2.17;;
66935;SDS011;53847;51.984;5.896;2022-09-09T07:51:38;5.63;;;1.85;;
66935;SDS011;53847;51.984;5.896;2022-09-09T07:54:07;4.95;;;1.83;;
66935;SDS011;53847;51.984;5.896;2022-09-09T07:56:37;4.90;;;2.20;;
66935;SDS011;53847;51.984;5.896;2022-09-09T07:59:04;6.78;;;2.47;;
66935;SDS011;53847;51.984;5.896;2022-09-09T08:01:32;8.15;;;2.30;;
66935;SDS011;53847;51.984;5.896;2022-09-09T08:04:01;5.32;;;2.30;;
66935;SDS011;53847;51.984;5.896;2022-09-09T08:06:37;4.05;;;1.73;;
66935;SDS011;53847;51.984;5.896;2022-09-09T08:09:06;5.18;;;2.10;;
66935;SDS011;53847;51.984;5.896;2022-09-09T08:11:34;3.65;;;1.90;;
66935;SDS011;53847;51.984;5.896;2022-09-09T08:14:00;6.25;;;2.13;;
66935;SDS011;53847;51.984;5.896;2022-09-09T08:16:31;5.63;;;2.08;;
66935;SDS011;53847;51.984;5.896;2022-09-09T08:19:00;5.03;;;2.00;;
66935;SDS011;53847;51.984;5.896;2022-09-09T08:21:27;4.70;;;1.92;;
66935;SDS011;53847;51.984;5.896;2022-09-09T08:23:57;5.20;;;2.33;;
66935;SDS011;53847;51.984;5.896;2022-09-09T08:26:44;8.25;;;2.47;;
66935;SDS011;53847;51.984;5.896;2022-09-09T08:29:12;4.75;;;1.70;;
66935;SDS011;53847;51.984;5.896;2022-09-09T08:31:40;6.43;;;2.08;;
66935;SDS011;53847;51.984;5.896;2022-09-09T08:34:06;6.22;;;2.13;;
66935;SDS011;53847;51.984;5.896;2022-09-09T08:36:35;3.97;;;1.90;;
66935;SDS011;53847;51.984;5.896;2022-09-09T08:39:09;5.47;;;1.80;;
66935;SDS011;53847;51.984;5.896;2022-09-09T08:50:21;4.93;;;1.80;;
66935;SDS011;53847;51.984;5.896;2022-09-09T08:52:51;7.22;;;1.80;;
66935;SDS011;53847;51.984;5.896;2022-09-09T08:58:30;4.88;;;2.17;;
66935;SDS011;53847;51.984;5.896;2022-09-09T09:12:23;4.82;;;2.08;;
66935;SDS011;53847;51.984;5.896;2022-09-09T09:14:54;4.70;;;1.70;;
66935;SDS011;53847;51.984;5.896;2022-09-09T09:17:21;6.50;;;1.92;;
66935;SDS011;53847;51.984;5.896;2022-09-09T09:19:51;5.13;;;1.98;;
66935;SDS011;53847;51.984;5.896;2022-09-09T09:22:18;6.32;;;2.10;;
66935;SDS011;53847;51.984;5.896;2022-09-09T09:24:55;5.75;;;1.90;;
66935;SDS011;53847;51.984;5.896;2022-09-09T09:27:33;5.85;;;1.83;;
66935;SDS011;53847;51.984;5.896;2022-09-09T09:30:10;4.60;;;1.77;;
66935;SDS011;53847;51.984;5.896;2022-09-09T09:32:51;5.07;;;1.80;;
66935;SDS011;53847;51.984;5.896;2022-09-09T09:35:25;3.88;;;1.45;;
66935;SDS011;53847;51.984;5.896;2022-09-09T09:37:51;3.78;;;1.83;;
66935;SDS011;53847;51.984;5.896;2022-09-09T09:40:19;2.15;;;1.27;;
66935;SDS011;53847;51.984;5.896;2022-09-09T09:42:48;4.03;;;1.80;;
66935;SDS011;53847;51.984;5.896;2022-09-09T09:45:25;4.68;;;1.80;;
66935;SDS011;53847;51.984;5.896;2022-09-09T09:47:59;4.97;;;1.42;;
66935;SDS011;53847;51.984;5.896;2022-09-09T09:50:26;5.75;;;2.17;;
66935;SDS011;53847;51.984;5.896;2022-09-09T09:52:54;7.03;;;1.92;;
66935;SDS011;53847;51.984;5.896;2022-09-09T09:55:34;4.50;;;1.70;;
66935;SDS011;53847;51.984;5.896;2022-09-09T09:58:05;5.43;;;2.00;;
66935;SDS011;53847;51.984;5.896;2022-09-09T10:00:32;5.20;;;1.85;;
66935;SDS011;53847;51.984;5.896;2022-09-09T10:03:13;5.40;;;1.95;;
66935;SDS011;53847;51.984;5.896;2022-09-09T10:05:57;4.30;;;1.50;;
66935;SDS011;53847;51.984;5.896;2022-09-09T10:08:24;4.82;;;1.67;;
66935;SDS011;53847;51.984;5.896;2022-09-09T10:11:00;4.93;;;1.70;;
66935;SDS011;53847;51.984;5.896;2022-09-09T10:13:57;7.15;;;1.85;;
66935;SDS011;53847;51.984;5.896;2022-09-09T10:19:33;6.43;;;1.90;;
66935;SDS011;53847;51.984;5.896;2022-09-09T10:27:42;4.38;;;1.85;;
66935;SDS011;53847;51.984;5.896;2022-09-09T10:38:02;5.28;;;1.65;;
66935;SDS011;53847;51.984;5.896;2022-09-09T10:40:43;7.35;;;2.30;;
66935;SDS011;53847;51.984;5.896;2022-09-09T10:43:27;6.38;;;1.65;;
66935;SDS011;53847;51.984;5.896;2022-09-09T10:51:28;5.50;;;1.80;;
66935;SDS011;53847;51.984;5.896;2022-09-09T10:54:09;4.97;;;1.90;;
66935;SDS011;53847;51.984;5.896;2022-09-09T10:56:40;6.05;;;2.10;;
66935;SDS011;53847;51.984;5.896;2022-09-09T10:59:17;5.93;;;1.70;;
66935;SDS011;53847;51.984;5.896;2022-09-09T11:01:47;4.60;;;1.58;;
66935;SDS011;53847;51.984;5.896;2022-09-09T11:04:25;5.65;;;2.22;;
66935;SDS011;53847;51.984;5.896;2022-09-09T11:06:59;4.55;;;1.98;;
66935;SDS011;53847;51.984;5.896;2022-09-09T11:09:32;4.10;;;1.67;;
66935;SDS011;53847;51.984;5.896;2022-09-09T11:12:05;5.93;;;2.13;;
66935;SDS011;53847;51.984;5.896;2022-09-09T11:14:37;5.45;;;2.17;;
66935;SDS011;53847;51.984;5.896;2022-09-09T11:17:10;4.95;;;1.98;;
66935;SDS011;53847;51.984;5.896;2022-09-09T11:19:43;3.75;;;1.52;;
66935;SDS011;53847;51.984;5.896;2022-09-09T11:24:53;5.00;;;1.95;;
66935;SDS011;53847;51.984;5.896;2022-09-09T11:27:30;5.95;;;1.77;;
66935;SDS011;53847;51.984;5.896;2022-09-09T11:30:27;4.95;;;1.48;;
66935;SDS011;53847;51.984;5.896;2022-09-09T11:33:19;5.32;;;1.90;;
66935;SDS011;53847;51.984;5.896;2022-09-09T11:38:44;5.27;;;1.97;;
66935;SDS011;53847;51.984;5.896;2022-09-09T11:41:15;5.72;;;2.03;;
66935;SDS011;53847;51.984;5.896;2022-09-09T11:46:16;4.15;;;1.70;;
66935;SDS011;53847;51.984;5.896;2022-09-09T11:48:56;3.65;;;1.45;;
66935;SDS011;53847;51.984;5.896;2022-09-09T11:51:26;3.10;;;1.83;;
66935;SDS011;53847;51.984;5.896;2022-09-09T11:56:59;5.28;;;1.65;;
66935;SDS011;53847;51.984;5.896;2022-09-09T11:59:32;2.35;;;1.40;;
66935;SDS011;53847;51.984;5.896;2022-09-09T12:13:19;3.17;;;1.65;;
66935;SDS011;53847;51.984;5.896;2022-09-09T12:15:50;3.85;;;1.30;;
66935;SDS011;53847;51.984;5.896;2022-09-09T12:18:31;5.17;;;1.70;;
66935;SDS011;53847;51.984;5.896;2022-09-09T12:24:22;3.60;;;1.70;;
66935;SDS011;53847;51.984;5.896;2022-09-09T12:30:09;3.63;;;1.48;;
66935;SDS011;53847;51.984;5.896;2022-09-09T12:32:22;2.75;;;1.42;;
66935;SDS011;53847;51.984;5.896;2022-09-09T12:40:24;2.63;;;1.38;;
66935;SDS011;53847;51.984;5.896;2022-09-09T12:42:55;2.63;;;1.60;;
66935;SDS011;53847;51.984;5.896;2022-09-09T12:45:23;4.38;;;1.65;;
66935;SDS011;53847;51.984;5.896;2022-09-09T12:50:24;3.03;;;1.52;;
66935;SDS011;53847;51.984;5.896;2022-09-09T12:53:09;2.92;;;1.33;;
66935;SDS011;53847;51.984;5.896;2022-09-09T12:55:55;2.75;;;1.50;;
66935;SDS011;53847;51.984;5.896;2022-09-09T12:58:27;2.35;;;1.30;;
66935;SDS011;53847;51.984;5.896;2022-09-09T13:00:55;2.63;;;1.33;;
66935;SDS011;53847;51.984;5.896;2022-09-09T13:03:22;4.72;;;1.60;;
66935;SDS011;53847;51.984;5.896;2022-09-09T13:05:49;3.70;;;1.90;;
66935;SDS011;53847;51.984;5.896;2022-09-09T13:08:16;3.03;;;1.48;;
66935;SDS011;53847;51.984;5.896;2022-09-09T13:11:17;4.40;;;1.77;;
66935;SDS011;53847;51.984;5.896;2022-09-09T13:13:39;3.85;;;1.58;;
66935;SDS011;53847;51.984;5.896;2022-09-09T13:16:27;2.30;;;1.52;;
66935;SDS011;53847;51.984;5.896;2022-09-09T13:19:02;2.25;;;1.30;;
66935;SDS011;53847;51.984;5.896;2022-09-09T13:21:35;2.28;;;1.30;;
66935;SDS011;53847;51.984;5.896;2022-09-09T13:24:03;2.25;;;1.17;;
66935;SDS011;53847;51.984;5.896;2022-09-09T13:26:58;3.17;;;1.75;;
66935;SDS011;53847;51.984;5.896;2022-09-09T13:29:26;2.30;;;1.58;;
66935;SDS011;53847;51.984;5.896;2022-09-09T13:31:52;1.67;;;1.20;;
66935;SDS011;53847;51.984;5.896;2022-09-09T13:34:30;2.97;;;1.33;;
66935;SDS011;53847;51.984;5.896;2022-09-09T13:37:04;3.05;;;1.60;;
66935;SDS011;53847;51.984;5.896;2022-09-09T13:39:33;4.90;;;1.67;;
66935;SDS011;53847;51.984;5.896;2022-09-09T13:42:02;4.88;;;1.65;;
66935;SDS011;53847;51.984;5.896;2022-09-09T13:44:30;3.38;;;1.55;;
66935;SDS011;53847;51.984;5.896;2022-09-09T13:47:21;3.67;;;1.63;;
66935;SDS011;53847;51.984;5.896;2022-09-09T13:49:53;2.13;;;1.40;;
66935;SDS011;53847;51.984;5.896;2022-09-09T13:52:20;3.38;;;1.60;;
66935;SDS011;53847;51.984;5.896;2022-09-09T13:54:47;3.55;;;1.35;;
66935;SDS011;53847;51.984;5.896;2022-09-09T13:57:24;3.00;;;1.60;;
66935;SDS011;53847;51.984;5.896;2022-09-09T13:59:52;2.03;;;1.40;;
66935;SDS011;53847;51.984;5.896;2022-09-09T14:02:19;3.92;;;1.70;;
66935;SDS011;53847;51.984;5.896;2022-09-09T14:04:47;2.55;;;1.40;;
66935;SDS011;53847;51.984;5.896;2022-09-09T14:07:15;3.00;;;1.67;;
66935;SDS011;53847;51.984;5.896;2022-09-09T14:09:43;3.55;;;1.75;;
66935;SDS011;53847;51.984;5.896;2022-09-09T14:12:13;4.15;;;1.58;;
66935;SDS011;53847;51.984;5.896;2022-09-09T14:14:40;3.20;;;1.42;;
66935;SDS011;53847;51.984;5.896;2022-09-09T14:17:06;2.83;;;1.70;;
66935;SDS011;53847;51.984;5.896;2022-09-09T14:19:32;2.25;;;1.60;;
66935;SDS011;53847;51.984;5.896;2022-09-09T14:21:58;2.70;;;1.20;;
66935;SDS011;53847;51.984;5.896;2022-09-09T14:24:25;3.72;;;1.35;;
66935;SDS011;53847;51.984;5.896;2022-09-09T14:26:51;3.80;;;1.63;;
66935;SDS011;53847;51.984;5.896;2022-09-09T14:29:17;2.83;;;1.45;;
66935;SDS011;53847;51.984;5.896;2022-09-09T14:31:43;2.47;;;1.30;;
66935;SDS011;53847;51.984;5.896;2022-09-09T14:34:09;2.85;;;1.38;;
66935;SDS011;53847;51.984;5.896;2022-09-09T14:36:35;4.28;;;1.52;;
66935;SDS011;53847;51.984;5.896;2022-09-09T14:39:03;3.65;;;1.60;;
66935;SDS011;53847;51.984;5.896;2022-09-09T14:41:29;1.95;;;1.38;;
66935;SDS011;53847;51.984;5.896;2022-09-09T14:43:55;3.10;;;1.40;;
66935;SDS011;53847;51.984;5.896;2022-09-09T14:46:22;2.42;;;1.50;;
66935;SDS011;53847;51.984;5.896;2022-09-09T14:48:48;1.58;;;1.27;;
66935;SDS011;53847;51.984;5.896;2022-09-09T14:51:19;3.22;;;1.40;;
66935;SDS011;53847;51.984;5.896;2022-09-09T14:53:47;2.47;;;1.20;;
66935;SDS011;53847;51.984;5.896;2022-09-09T14:56:17;2.85;;;1.58;;
66935;SDS011;53847;51.984;5.896;2022-09-09T14:58:45;3.47;;;1.58;;
66935;SDS011;53847;51.984;5.896;2022-09-09T15:01:12;3.13;;;1.30;;
66935;SDS011;53847;51.984;5.896;2022-09-09T15:03:47;2.72;;;1.38;;
66935;SDS011;53847;51.984;5.896;2022-09-09T15:06:18;3.47;;;1.30;;
66935;SDS011;53847;51.984;5.896;2022-09-09T15:08:46;4.72;;;1.80;;
66935;SDS011;53847;51.984;5.896;2022-09-09T15:11:13;3.70;;;1.60;;
66935;SDS011;53847;51.984;5.896;2022-09-09T15:13:40;3.55;;;1.55;;
66935;SDS011;53847;51.984;5.896;2022-09-09T15:16:08;3.28;;;1.30;;
66935;SDS011;53847;51.984;5.896;2022-09-09T15:18:36;2.97;;;1.45;;
66935;SDS011;53847;51.984;5.896;2022-09-09T15:21:03;2.63;;;1.30;;
66935;SDS011;53847;51.984;5.896;2022-09-09T15:23:30;2.45;;;1.10;;
66935;SDS011;53847;51.984;5.896;2022-09-09T15:25:57;1.95;;;1.20;;
66935;SDS011;53847;51.984;5.896;2022-09-09T15:28:23;2.97;;;1.45;;
66935;SDS011;53847;51.984;5.896;2022-09-09T15:30:50;2.90;;;1.40;;
66935;SDS011;53847;51.984;5.896;2022-09-09T15:33:21;2.30;;;1.38;;
66935;SDS011;53847;51.984;5.896;2022-09-09T15:35:48;3.33;;;1.48;;
66935;SDS011;53847;51.984;5.896;2022-09-09T15:38:14;3.00;;;1.52;;
66935;SDS011;53847;51.984;5.896;2022-09-09T15:40:41;1.80;;;1.30;;
66935;SDS011;53847;51.984;5.896;2022-09-09T15:43:08;2.50;;;1.60;;
66935;SDS011;53847;51.984;5.896;2022-09-09T15:45:35;2.50;;;1.42;;
66935;SDS011;53847;51.984;5.896;2022-09-09T15:48:02;2.67;;;1.40;;
66935;SDS011;53847;51.984;5.896;2022-09-09T15:50:29;2.08;;;1.60;;
66935;SDS011;53847;51.984;5.896;2022-09-09T15:52:56;2.15;;;1.40;;
66935;SDS011;53847;51.984;5.896;2022-09-09T15:55:24;3.35;;;1.30;;
66935;SDS011;53847;51.984;5.896;2022-09-09T15:57:51;3.40;;;2.20;;
66935;SDS011;53847;51.984;5.896;2022-09-09T16:00:17;3.63;;;2.30;;
66935;SDS011;53847;51.984;5.896;2022-09-09T16:02:44;3.90;;;2.60;;
66935;SDS011;53847;51.984;5.896;2022-09-09T16:05:11;3.38;;;1.85;;
66935;SDS011;53847;51.984;5.896;2022-09-09T16:07:37;1.75;;;1.50;;
66935;SDS011;53847;51.984;5.896;2022-09-09T16:10:03;1.60;;;1.00;;
66935;SDS011;53847;51.984;5.896;2022-09-09T16:12:30;1.42;;;1.10;;
66935;SDS011;53847;51.984;5.896;2022-09-09T16:14:56;3.33;;;2.38;;
66935;SDS011;53847;51.984;5.896;2022-09-09T16:17:22;2.47;;;2.08;;
66935;SDS011;53847;51.984;5.896;2022-09-09T16:19:49;2.03;;;1.75;;
66935;SDS011;53847;51.984;5.896;2022-09-09T16:22:20;2.38;;;1.30;;
66935;SDS011;53847;51.984;5.896;2022-09-09T16:24:46;3.08;;;1.48;;
66935;SDS011;53847;51.984;5.896;2022-09-09T16:27:13;3.05;;;1.35;;
66935;SDS011;53847;51.984;5.896;2022-09-09T16:29:39;2.35;;;1.30;;
66935;SDS011;53847;51.984;5.896;2022-09-09T16:32:06;3.33;;;1.30;;
66935;SDS011;53847;51.984;5.896;2022-09-09T16:34:32;2.85;;;1.40;;
66935;SDS011;53847;51.984;5.896;2022-09-09T16:36:59;2.45;;;1.30;;
66935;SDS011;53847;51.984;5.896;2022-09-09T16:39:26;3.58;;;1.92;;
66935;SDS011;53847;51.984;5.896;2022-09-09T16:41:52;3.08;;;1.60;;
66935;SDS011;53847;51.984;5.896;2022-09-09T16:44:20;3.35;;;1.90;;
66935;SDS011;53847;51.984;5.896;2022-09-09T16:46:47;2.30;;;1.20;;
66935;SDS011;53847;51.984;5.896;2022-09-09T16:49:14;3.25;;;1.60;;
66935;SDS011;53847;51.984;5.896;2022-09-09T16:51:45;1.33;;;1.20;;
66935;SDS011;53847;51.984;5.896;2022-09-09T16:54:14;2.00;;;1.23;;
66935;SDS011;53847;51.984;5.896;2022-09-09T16:56:43;2.63;;;1.40;;
66935;SDS011;53847;51.984;5.896;2022-09-09T16:59:14;1.58;;;1.15;;